Overview Statistics Trail Chart Weather Telemetry Raw packets
 

This is the latest recevied weather packets stored in our database for station/object YO6LRV-3. If no packets are shown the sender has not sent any weather packets the latest 10 day(s).

<< 19 20 21 22 23 >>
Time Temp. Humidity Pressure Rain* Wind** Luminosity Snow
1787766118 21.67° C 75% 1017.9 hPa - - - -
1787765218 22.22° C 75% 1017.8 hPa - - - -
1787764325 22.22° C 77% 1017.8 hPa - - - -
1787763424 22.78° C 78% 1017.8 hPa - - - -
1787762529 22.78° C 75% 1017.5 hPa - - - -
1787761624 23.33° C 72% 1017.3 hPa - - - -
1787760724 23.33° C 71% 1017.2 hPa - - - -
1787759824 23.89° C 70% 1016.9 hPa - - - -
1787758924 23.89° C 70% 1016.8 hPa - - - -
1787758024 23.89° C 69% 1016.6 hPa - - - -
1787745417 26.11° C 68% 1016.4 hPa - - - -
1787744517 26.11° C 69% 1016.3 hPa - - - -
1787743617 25.56° C 68% 1016.4 hPa - - - -
1787738219 22.22° C 85% 1016.6 hPa - - - -
1787737316 21.67° C 87% 1016.7 hPa - - - -
1787736416 21.11° C 85% 1016.6 hPa - - - -
1787735516 21.11° C 86% 1016.7 hPa - - - -
1787734616 20.56° C 84% 1016.8 hPa - - - -
1787733715 20.56° C 90% 1016.8 hPa - - - -
1787731915 19.44° C 87% 1016.7 hPa - - - -
1787730115 19.44° C 87% 1016.5 hPa - - - -
1787729217 18.89° C 86% 1016.3 hPa - - - -
1787716622 17.78° C 84% 1015 hPa - - - -
1787715722 17.78° C 87% 1014.9 hPa - - - -
1787714822 17.78° C 91% 1014.8 hPa - - - -

* Rain since midnight (hover to see other rain measurements)
** Current wind speed in m/s (hover to see current wind gust speed)